createdAt,value
2018-04-01T00:00:21.047Z,1004.23
2018-04-01T00:01:30.164Z,1004.26
2018-04-01T00:02:38.994Z,1004.22
2018-04-01T00:03:47.823Z,1004.24
2018-04-01T00:04:56.651Z,1004.23
2018-04-01T00:06:05.481Z,1004.17
2018-04-01T00:07:14.310Z,1004.23
2018-04-01T00:08:23.138Z,1004.18
2018-04-01T00:09:31.964Z,1004.22
2018-04-01T00:10:40.795Z,1004.24
2018-04-01T00:11:49.624Z,1004.22
2018-04-01T00:12:58.451Z,1004.27
2018-04-01T00:14:07.280Z,1004.22
2018-04-01T00:15:16.400Z,1004.23
2018-04-01T00:16:25.213Z,1004.29
2018-04-01T00:17:34.039Z,1004.29
2018-04-01T00:18:42.869Z,1004.28
2018-04-01T00:19:51.698Z,1004.24
2018-04-01T00:21:00.823Z,1004.29
2018-04-01T00:22:09.659Z,1004.22
2018-04-01T00:23:18.484Z,1004.21
2018-04-01T00:24:27.310Z,1004.17
2018-04-01T00:25:36.194Z,1004.21
2018-04-01T00:26:45.321Z,1004.23
2018-04-01T00:27:54.148Z,1004.25
2018-04-01T00:29:03.253Z,1004.22
2018-04-01T00:30:12.080Z,1004.27
2018-04-01T00:31:20.910Z,1004.31
2018-04-01T00:32:29.741Z,1004.32
2018-04-01T00:33:38.569Z,1004.33
2018-04-01T00:34:47.398Z,1004.39
2018-04-01T00:35:56.502Z,1004.38
2018-04-01T00:37:05.332Z,1004.39
2018-04-01T00:38:14.311Z,1004.4
2018-04-01T00:39:23.145Z,1004.36
2018-04-01T00:40:31.969Z,1004.36
2018-04-01T00:41:40.797Z,1004.36
2018-04-01T00:42:49.900Z,1004.34
2018-04-01T00:43:58.727Z,1004.33
2018-04-01T00:45:07.557Z,1004.33
2018-04-01T00:46:16.657Z,1004.34
2018-04-01T00:47:25.773Z,1004.36
2018-04-01T00:48:34.600Z,1004.32
2018-04-01T00:49:43.478Z,1004.3
2018-04-01T00:50:52.305Z,1004.31
2018-04-01T00:52:01.135Z,1004.29
2018-04-01T00:53:10.239Z,1004.29
2018-04-01T00:54:19.066Z,1004.31
2018-04-01T00:55:27.896Z,1004.3
2018-04-01T00:56:36.724Z,1004.3
2018-04-01T00:57:45.552Z,1004.33
2018-04-01T00:58:54.384Z,1004.35
2018-04-01T01:00:03.215Z,1004.32
2018-04-01T01:01:12.344Z,1004.31
2018-04-01T01:02:21.176Z,1004.32
2018-04-01T01:03:30.003Z,1004.34
2018-04-01T01:04:38.831Z,1004.34
2018-04-01T01:05:47.659Z,1004.34
2018-04-01T01:06:56.688Z,1004.35
2018-04-01T01:08:05.521Z,1004.31
2018-04-01T01:09:14.348Z,1004.33
2018-04-01T01:10:23.178Z,1004.29
2018-04-01T01:11:32.283Z,1004.36
2018-04-01T01:12:41.542Z,1004.32
2018-04-01T01:13:50.365Z,1004.34
2018-04-01T01:14:59.192Z,1004.33
2018-04-01T01:16:08.025Z,1004.34
2018-04-01T01:17:16.849Z,1004.34
2018-04-01T01:18:25.676Z,1004.36
2018-04-01T01:19:35.056Z,1004.38
2018-04-01T01:20:43.882Z,1004.36
2018-04-01T01:21:52.710Z,1004.37
2018-04-01T01:23:01.813Z,1004.32
2018-04-01T01:24:10.841Z,1004.34
2018-04-01T01:25:19.944Z,1004.31
2018-04-01T01:26:28.771Z,1004.3
2018-04-01T01:27:37.601Z,1004.28
2018-04-01T01:28:46.430Z,1004.31
2018-04-01T01:29:55.407Z,1004.3
2018-04-01T01:31:04.235Z,1004.32
2018-04-01T01:32:13.343Z,1004.3
2018-04-01T01:33:22.454Z,1004.27
2018-04-01T01:34:31.283Z,1004.3
2018-04-01T01:35:40.109Z,1004.3
2018-04-01T01:36:48.937Z,1004.3
2018-04-01T01:37:57.764Z,1004.32
2018-04-01T01:39:06.593Z,1004.32
2018-04-01T01:40:15.420Z,1004.32
2018-04-01T01:41:24.500Z,1004.32
2018-04-01T01:42:33.329Z,1004.28
2018-04-01T01:43:42.430Z,1004.3
2018-04-01T01:44:51.257Z,1004.29
2018-04-01T01:46:00.092Z,1004.26
2018-04-01T01:47:09.064Z,1004.21
2018-04-01T01:48:18.167Z,1004.19
2018-04-01T01:49:26.993Z,1004.23
2018-04-01T01:50:35.823Z,1004.23
2018-04-01T01:51:44.653Z,1004.24
2018-04-01T01:52:53.582Z,1004.28
2018-04-01T01:54:02.409Z,1004.29
2018-04-01T01:55:11.238Z,1004.3
2018-04-01T01:56:20.071Z,1004.36
2018-04-01T01:57:28.945Z,1004.38
2018-04-01T01:58:38.124Z,1004.4
2018-04-01T01:59:47.232Z,1004.39
2018-04-01T02:00:56.074Z,1004.37
2018-04-01T02:02:05.170Z,1004.4
2018-04-01T02:03:13.996Z,1004.41
2018-04-01T02:04:22.925Z,1004.41
2018-04-01T02:05:32.030Z,1004.37
2018-04-01T02:06:40.859Z,1004.35
2018-04-01T02:07:49.686Z,1004.33
2018-04-01T02:08:58.514Z,1004.34
2018-04-01T02:10:07.343Z,1004.34
2018-04-01T02:11:16.448Z,1004.35
2018-04-01T02:12:25.277Z,1004.35
2018-04-01T02:13:34.105Z,1004.35
2018-04-01T02:14:42.936Z,1004.42
2018-04-01T02:15:52.167Z,1004.43
2018-04-01T02:17:00.991Z,1004.45
2018-04-01T02:18:09.838Z,1004.44
2018-04-01T02:19:18.649Z,1004.46
2018-04-01T02:20:27.478Z,1004.52
2018-04-01T02:21:36.556Z,1004.52
2018-04-01T02:22:45.386Z,1004.51
2018-04-01T02:23:54.212Z,1004.51
2018-04-01T02:25:03.040Z,1004.51
2018-04-01T02:26:12.144Z,1004.53
2018-04-01T02:27:21.072Z,1004.54
2018-04-01T02:28:29.900Z,1004.5
2018-04-01T02:29:38.725Z,1004.51
2018-04-01T02:30:47.552Z,1004.5
2018-04-01T02:31:56.383Z,1004.49
2018-04-01T02:33:05.259Z,1004.52
2018-04-01T02:34:14.087Z,1004.53
2018-04-01T02:35:23.205Z,1004.5
2018-04-01T02:36:32.030Z,1004.49
2018-04-01T02:37:40.861Z,1004.5
2018-04-01T02:38:49.688Z,1004.49
2018-04-01T02:39:58.513Z,1004.54
2018-04-01T02:41:07.342Z,1004.56
2018-04-01T02:42:16.175Z,1004.58
2018-04-01T02:43:25.292Z,1004.58
2018-04-01T02:44:34.514Z,1004.67
2018-04-01T02:45:43.343Z,1004.64
2018-04-01T02:46:52.172Z,1004.68
2018-04-01T02:48:01.275Z,1004.65
2018-04-01T02:49:10.391Z,1004.65
2018-04-01T02:50:19.365Z,1004.66
2018-04-01T02:51:28.191Z,1004.69
2018-04-01T02:52:37.022Z,1004.68
2018-04-01T02:53:45.851Z,1004.65
2018-04-01T02:54:54.954Z,1004.64
2018-04-01T02:56:04.315Z,1004.63
2018-04-01T02:57:13.143Z,1004.62
2018-04-01T02:58:21.969Z,1004.61
2018-04-01T02:59:30.799Z,1004.65
2018-04-01T03:00:39.626Z,1004.66
2018-04-01T03:01:48.454Z,1004.7
2018-04-01T03:02:57.286Z,1004.66
2018-04-01T03:04:06.116Z,1004.65
2018-04-01T03:05:14.946Z,1004.69
2018-04-01T03:06:23.772Z,1004.7
2018-04-01T03:07:32.878Z,1004.72
2018-04-01T03:08:42.279Z,1004.66
2018-04-01T03:09:51.104Z,1004.62
2018-04-01T03:10:59.934Z,1004.65
2018-04-01T03:12:09.109Z,1004.66
2018-04-01T03:13:17.942Z,1004.69
2018-04-01T03:14:26.765Z,1004.73
2018-04-01T03:15:35.842Z,1004.73
2018-04-01T03:16:44.670Z,1004.72
2018-04-01T03:17:53.499Z,1004.71
2018-04-01T03:19:02.328Z,1004.74
2018-04-01T03:20:11.154Z,1004.75
2018-04-01T03:21:19.983Z,1004.75
2018-04-01T03:22:28.813Z,1004.75
2018-04-01T03:23:37.919Z,1004.72
2018-04-01T03:24:46.896Z,1004.72
2018-04-01T03:25:55.724Z,1004.73
2018-04-01T03:27:04.553Z,1004.74
2018-04-01T03:28:13.385Z,1004.74
2018-04-01T03:29:22.211Z,1004.7
2018-04-01T03:30:31.042Z,1004.78
2018-04-01T03:31:39.868Z,1004.8
2018-04-01T03:32:48.694Z,1004.79
2018-04-01T03:33:57.803Z,1004.8
2018-04-01T03:35:06.630Z,1004.84
2018-04-01T03:36:15.459Z,1004.82
2018-04-01T03:37:24.572Z,1004.85
2018-04-01T03:38:33.404Z,1004.85
2018-04-01T03:39:42.237Z,1004.85
2018-04-01T03:40:51.060Z,1004.87
2018-04-01T03:41:59.937Z,1004.85
2018-04-01T03:43:08.766Z,1004.84
2018-04-01T03:44:17.595Z,1004.85
2018-04-01T03:45:26.422Z,1004.85
2018-04-01T03:46:35.259Z,1004.81
2018-04-01T03:47:44.361Z,1004.84
2018-04-01T03:48:53.188Z,1004.8
2018-04-01T03:50:02.022Z,1004.82
2018-04-01T03:51:11.133Z,1004.81
2018-04-01T03:52:20.237Z,1004.81
2018-04-01T03:53:29.113Z,1004.82
2018-04-01T03:54:37.940Z,1004.82
2018-04-01T03:55:46.769Z,1004.8
2018-04-01T03:56:55.597Z,1004.8
2018-04-01T03:58:04.429Z,1004.83
2018-04-01T03:59:13.301Z,1004.85
2018-04-01T04:00:22.137Z,1004.83
2018-04-01T04:01:31.597Z,1004.85
2018-04-01T04:02:40.426Z,1004.79
2018-04-01T04:03:49.252Z,1004.82
2018-04-01T04:04:58.085Z,1004.81
2018-04-01T04:06:07.192Z,1004.84
2018-04-01T04:07:16.021Z,1004.8
2018-04-01T04:08:25.129Z,1004.81
2018-04-01T04:09:33.958Z,1004.86
2018-04-01T04:10:43.038Z,1004.89
2018-04-01T04:11:51.865Z,1004.9
2018-04-01T04:13:00.970Z,1004.94
2018-04-01T04:14:09.805Z,1004.93
2018-04-01T04:15:18.637Z,1005.01
2018-04-01T04:16:27.561Z,1005.02
2018-04-01T04:17:36.410Z,1005.02
2018-04-01T04:18:45.220Z,1004.99
2018-04-01T04:19:54.046Z,1005.06
2018-04-01T04:21:02.875Z,1005.06
2018-04-01T04:22:11.756Z,1005.06
2018-04-01T04:23:20.584Z,1005.04
2018-04-01T04:24:29.688Z,1005.08
2018-04-01T04:25:38.515Z,1005.04
2018-04-01T04:26:47.344Z,1005.08
2018-04-01T04:27:56.172Z,1005.11
2018-04-01T04:29:05.279Z,1005.09
2018-04-01T04:30:14.107Z,1005.1
2018-04-01T04:31:22.937Z,1005.1
2018-04-01T04:32:31.766Z,1005.08
2018-04-01T04:33:40.598Z,1005.09
2018-04-01T04:34:49.427Z,1005.12
2018-04-01T04:35:58.260Z,1005.16
2018-04-01T04:37:07.101Z,1005.17
2018-04-01T04:38:16.211Z,1005.13
2018-04-01T04:39:25.134Z,1005.14
2018-04-01T04:40:34.247Z,1005.12
2018-04-01T04:41:43.080Z,1005.11
2018-04-01T04:42:51.908Z,1005.1
2018-04-01T04:44:00.735Z,1005.04
2018-04-01T04:45:10.086Z,1005.08
2018-04-01T04:46:19.191Z,1005.08
2018-04-01T04:47:28.294Z,1005.07
2018-04-01T04:48:37.122Z,1005.07
2018-04-01T04:49:45.949Z,1005.09
2018-04-01T04:50:54.830Z,1005.13
2018-04-01T04:52:03.666Z,1005.12
2018-04-01T04:53:12.774Z,1005.16
2018-04-01T04:54:21.601Z,1005.14
2018-04-01T04:55:30.430Z,1005.17
2018-04-01T04:56:39.255Z,1005.16
2018-04-01T04:57:48.085Z,1005.19
2018-04-01T04:58:56.911Z,1005.22
2018-04-01T05:00:05.741Z,1005.19
2018-04-01T05:01:14.844Z,1005.2
2018-04-01T05:02:23.823Z,1005.18
2018-04-01T05:03:32.650Z,1005.2
2018-04-01T05:04:41.480Z,1005.21
2018-04-01T05:05:50.315Z,1005.22
2018-04-01T05:06:59.144Z,1005.23
2018-04-01T05:08:08.374Z,1005.23
2018-04-01T05:09:17.204Z,1005.21
2018-04-01T05:10:26.030Z,1005.21
2018-04-01T05:11:34.858Z,1005.19
2018-04-01T05:12:43.689Z,1005.27
2018-04-01T05:13:52.516Z,1005.24
2018-04-01T05:15:01.344Z,1005.21
2018-04-01T05:16:10.173Z,1005.23
2018-04-01T05:17:19.003Z,1005.21
2018-04-01T05:18:27.833Z,1005.19
2018-04-01T05:19:36.763Z,1005.24
2018-04-01T05:20:45.591Z,1005.2
2018-04-01T05:21:54.421Z,1005.25
2018-04-01T05:23:03.528Z,1005.24
2018-04-01T05:24:12.354Z,1005.3
2018-04-01T05:25:21.182Z,1005.29
2018-04-01T05:26:30.011Z,1005.37
2018-04-01T05:27:38.838Z,1005.34
2018-04-01T05:28:47.666Z,1005.38
2018-04-01T05:29:56.491Z,1005.4
2018-04-01T05:31:05.423Z,1005.41
2018-04-01T05:32:14.252Z,1005.46
2018-04-01T05:33:23.080Z,1005.51
2018-04-01T05:34:31.910Z,1005.52
2018-04-01T05:35:40.736Z,1005.57
2018-04-01T05:36:49.820Z,1005.58
2018-04-01T05:37:58.645Z,1005.53
2018-04-01T05:39:07.474Z,1005.53
2018-04-01T05:40:16.302Z,1005.55
2018-04-01T05:41:25.174Z,1005.56
2018-04-01T05:42:34.057Z,1005.58
2018-04-01T05:43:43.158Z,1005.59
2018-04-01T05:44:51.988Z,1005.61
2018-04-01T05:46:00.821Z,1005.62
2018-04-01T05:47:09.644Z,1005.68
2018-04-01T05:48:18.572Z,1005.69
2018-04-01T05:49:27.679Z,1005.65
2018-04-01T05:50:36.506Z,1005.72
2018-04-01T05:51:45.610Z,1005.7
2018-04-01T05:52:54.721Z,1005.74
2018-04-01T05:54:03.544Z,1005.73
2018-04-01T05:55:12.373Z,1005.75
2018-04-01T05:56:21.200Z,1005.79
2018-04-01T05:57:30.028Z,1005.79
2018-04-01T05:58:38.855Z,1005.78
2018-04-01T05:59:48.212Z,1005.82
2018-04-01T06:00:57.042Z,1005.78
2018-04-01T06:02:05.875Z,1005.78
2018-04-01T06:03:14.702Z,1005.78
2018-04-01T06:04:23.530Z,1005.81
2018-04-01T06:05:32.710Z,1005.82
2018-04-01T06:06:41.538Z,1005.8
2018-04-01T06:07:50.371Z,1005.84
2018-04-01T06:08:59.200Z,1005.83
2018-04-01T06:10:08.029Z,1005.91
2018-04-01T06:11:17.143Z,1005.86
2018-04-01T06:12:25.970Z,1005.91
2018-04-01T06:13:34.802Z,1005.93
2018-04-01T06:14:43.633Z,1005.9
2018-04-01T06:15:52.463Z,1005.89
2018-04-01T06:17:01.290Z,1005.87
2018-04-01T06:18:10.119Z,1005.89
2018-04-01T06:19:18.950Z,1005.9
2018-04-01T06:20:27.780Z,1005.9
2018-04-01T06:21:36.616Z,1005.98
2018-04-01T06:22:45.596Z,1005.97
2018-04-01T06:23:54.426Z,1005.99
2018-04-01T06:25:03.257Z,1006.05
2018-04-01T06:26:12.087Z,1006.06
2018-04-01T06:27:21.190Z,1006.03
2018-04-01T06:28:30.069Z,1006.1
2018-04-01T06:29:38.898Z,1006.14
2018-04-01T06:30:47.730Z,1006.15
2018-04-01T06:31:56.559Z,1006.22
2018-04-01T06:33:05.393Z,1006.18
2018-04-01T06:34:14.321Z,1006.25
2018-04-01T06:35:23.426Z,1006.21
2018-04-01T06:36:32.259Z,1006.29
2018-04-01T06:37:41.370Z,1006.26
2018-04-01T06:38:50.199Z,1006.3
2018-04-01T06:39:59.242Z,1006.29
2018-04-01T06:41:08.011Z,1006.27
2018-04-01T06:42:16.833Z,1006.24
2018-04-01T06:43:25.664Z,1006.28
2018-04-01T06:44:34.496Z,1006.26
2018-04-01T06:45:43.607Z,1006.22
2018-04-01T06:46:52.434Z,1006.25
2018-04-01T06:48:01.264Z,1006.24
2018-04-01T06:49:10.093Z,1006.27
2018-04-01T06:50:18.923Z,1006.24
2018-04-01T06:51:28.278Z,1006.24
2018-04-01T06:52:37.108Z,1006.22
2018-04-01T06:53:45.938Z,1006.21
2018-04-01T06:54:54.769Z,1006.23
2018-04-01T06:56:03.593Z,1006.22
2018-04-01T06:57:12.574Z,1006.22
2018-04-01T06:58:21.403Z,1006.22
2018-04-01T06:59:30.230Z,1006.21
2018-04-01T07:00:39.341Z,1006.26
2018-04-01T07:01:48.169Z,1006.23
2018-04-01T07:02:56.997Z,1006.24
2018-04-01T07:04:05.827Z,1006.29
2018-04-01T07:05:14.979Z,1006.26
2018-04-01T07:06:23.809Z,1006.34
2018-04-01T07:07:32.638Z,1006.39
2018-04-01T07:08:41.516Z,1006.38
2018-04-01T07:09:50.349Z,1006.38
2018-04-01T07:10:59.457Z,1006.41
2018-04-01T07:12:08.303Z,1006.52
2018-04-01T07:13:17.113Z,1006.51
2018-04-01T07:14:26.093Z,1006.53
2018-04-01T07:15:34.920Z,1006.57
2018-04-01T07:16:43.750Z,1006.57
2018-04-01T07:17:52.580Z,1006.61
2018-04-01T07:19:01.410Z,1006.65
2018-04-01T07:20:10.389Z,1006.66
2018-04-01T07:21:19.220Z,1006.64
2018-04-01T07:22:28.050Z,1006.65
2018-04-01T07:23:36.929Z,1006.71
2018-04-01T07:24:46.021Z,1006.68
2018-04-01T07:25:54.900Z,1006.74
2018-04-01T07:27:04.005Z,1006.69
2018-04-01T07:28:12.834Z,1006.69
2018-04-01T07:29:21.664Z,1006.72
2018-04-01T07:30:30.498Z,1006.73
2018-04-01T07:31:39.329Z,1006.71
2018-04-01T07:32:48.163Z,1006.73
2018-04-01T07:33:56.998Z,1006.72
2018-04-01T07:35:05.830Z,1006.72
2018-04-01T07:36:14.700Z,1006.69
2018-04-01T07:37:23.591Z,1006.7
2018-04-01T07:38:32.696Z,1006.77
2018-04-01T07:39:41.527Z,1006.69
2018-04-01T07:40:50.357Z,1006.76
2018-04-01T07:41:59.465Z,1006.79
2018-04-01T07:43:08.723Z,1006.76
2018-04-01T07:44:17.553Z,1006.72
2018-04-01T07:45:26.384Z,1006.73
2018-04-01T07:46:35.211Z,1006.74
2018-04-01T07:47:44.042Z,1006.79
2018-04-01T07:48:53.499Z,1006.75
2018-04-01T07:50:02.332Z,1006.76
2018-04-01T07:51:11.165Z,1006.74
2018-04-01T07:52:19.994Z,1006.72
2018-04-01T07:53:28.823Z,1006.69
2018-04-01T07:54:38.054Z,1006.72
2018-04-01T07:55:46.885Z,1006.72
2018-04-01T07:56:55.716Z,1006.75
2018-04-01T07:58:04.544Z,1006.71
2018-04-01T07:59:13.375Z,1006.75
2018-04-01T08:00:22.205Z,1006.79
2018-04-01T08:01:31.036Z,1006.74
2018-04-01T08:02:39.868Z,1006.76
2018-04-01T08:03:48.699Z,1006.74
2018-04-01T08:04:57.823Z,1006.77
2018-04-01T08:06:06.754Z,1006.82
2018-04-01T08:07:15.585Z,1006.86
2018-04-01T08:08:24.419Z,1006.89
2018-04-01T08:09:33.798Z,1006.89
2018-04-01T08:10:42.629Z,1006.95
2018-04-01T08:11:51.460Z,1006.97
2018-04-01T08:13:00.294Z,1006.99
2018-04-01T08:14:09.124Z,1006.99
2018-04-01T08:15:17.955Z,1007.01
2018-04-01T08:16:26.786Z,1007.03
2018-04-01T08:17:35.668Z,1007
2018-04-01T08:18:44.497Z,1006.99
2018-04-01T08:19:53.329Z,1007.03
2018-04-01T08:21:02.437Z,1007.06
2018-04-01T08:22:11.269Z,1007.07
2018-04-01T08:23:20.123Z,1007.07
2018-04-01T08:24:28.932Z,1007.09
2018-04-01T08:25:37.767Z,1007.12
2018-04-01T08:26:46.600Z,1007.14
2018-04-01T08:27:55.428Z,1007.21
2018-04-01T08:29:04.361Z,1007.2
2018-04-01T08:30:13.190Z,1007.23
2018-04-01T08:31:22.021Z,1007.24
2018-04-01T08:32:30.852Z,1007.21
2018-04-01T08:33:39.682Z,1007.19
2018-04-01T08:34:48.863Z,1007.16
2018-04-01T08:35:57.695Z,1007.19
2018-04-01T08:37:06.529Z,1007.2
2018-04-01T08:38:15.642Z,1007.16
2018-04-01T08:39:24.473Z,1007.2
2018-04-01T08:40:33.301Z,1007.25
2018-04-01T08:41:42.135Z,1007.27
2018-04-01T08:42:50.968Z,1007.24
2018-04-01T08:43:59.798Z,1007.26
2018-04-01T08:45:08.633Z,1007.3
2018-04-01T08:46:17.795Z,1007.31
2018-04-01T08:47:26.622Z,1007.33
2018-04-01T08:48:35.461Z,1007.36
2018-04-01T08:49:44.575Z,1007.32
2018-04-01T08:50:53.418Z,1007.37
2018-04-01T08:52:02.525Z,1007.38
2018-04-01T08:53:11.379Z,1007.38
2018-04-01T08:54:20.186Z,1007.39
2018-04-01T08:55:29.291Z,1007.38
2018-04-01T08:56:38.126Z,1007.43
2018-04-01T08:57:47.011Z,1007.45
2018-04-01T08:58:55.843Z,1007.44
2018-04-01T09:00:04.679Z,1007.46
2018-04-01T09:01:13.507Z,1007.5
2018-04-01T09:02:22.339Z,1007.45
2018-04-01T09:03:31.602Z,1007.44
2018-04-01T09:04:40.436Z,1007.45
2018-04-01T09:05:49.268Z,1007.47
2018-04-01T09:06:58.099Z,1007.5
2018-04-01T09:08:06.931Z,1007.47
2018-04-01T09:09:15.812Z,1007.45
2018-04-01T09:10:24.644Z,1007.48
2018-04-01T09:11:33.476Z,1007.49
2018-04-01T09:12:42.305Z,1007.47
2018-04-01T09:13:51.136Z,1007.51
2018-04-01T09:15:00.398Z,1007.44
2018-04-01T09:16:09.503Z,1007.48
2018-04-01T09:17:18.334Z,1007.48
2018-04-01T09:18:27.169Z,1007.47
2018-04-01T09:19:36.000Z,1007.53
2018-04-01T09:20:44.985Z,1007.5
2018-04-01T09:21:54.095Z,1007.5
2018-04-01T09:23:03.205Z,1007.53
2018-04-01T09:24:12.038Z,1007.53
2018-04-01T09:25:20.869Z,1007.55
2018-04-01T09:26:30.001Z,1007.5
2018-04-01T09:27:38.881Z,1007.48
2018-04-01T09:28:47.667Z,1007.54
2018-04-01T09:29:56.500Z,1007.5
2018-04-01T09:31:05.335Z,1007.52
2018-04-01T09:32:14.446Z,1007.53
2018-04-01T09:33:23.555Z,1007.48
2018-04-01T09:34:32.389Z,1007.47
2018-04-01T09:35:41.497Z,1007.53
2018-04-01T09:36:50.368Z,1007.59
2018-04-01T09:37:59.263Z,1007.61
2018-04-01T09:39:08.094Z,1007.56
2018-04-01T09:40:16.922Z,1007.58
2018-04-01T09:41:25.754Z,1007.6
2018-04-01T09:42:34.587Z,1007.63
2018-04-01T09:43:43.848Z,1007.6
2018-04-01T09:44:52.958Z,1007.65
2018-04-01T09:46:01.792Z,1007.65
2018-04-01T09:47:10.900Z,1007.68
2018-04-01T09:48:19.731Z,1007.7
2018-04-01T09:49:28.566Z,1007.67
2018-04-01T09:50:37.396Z,1007.7
2018-04-01T09:51:46.229Z,1007.71
2018-04-01T09:52:55.062Z,1007.69
2018-04-01T09:54:03.891Z,1007.71
2018-04-01T09:55:12.825Z,1007.69
2018-04-01T09:56:21.657Z,1007.74
2018-04-01T09:57:30.492Z,1007.72
2018-04-01T09:58:39.323Z,1007.72
2018-04-01T09:59:48.156Z,1007.75
2018-04-01T10:00:57.144Z,1007.72
2018-04-01T10:02:05.971Z,1007.73
2018-04-01T10:03:14.801Z,1007.72
2018-04-01T10:04:23.971Z,1007.73
2018-04-01T10:05:33.080Z,1007.78
2018-04-01T10:06:41.913Z,1007.81
2018-04-01T10:07:51.025Z,1007.79
2018-04-01T10:08:59.858Z,1007.78
2018-04-01T10:10:08.691Z,1007.71
2018-04-01T10:11:17.524Z,1007.76
2018-04-01T10:12:26.405Z,1007.75
2018-04-01T10:13:35.241Z,1007.8
2018-04-01T10:14:44.075Z,1007.79
2018-04-01T10:15:52.906Z,1007.79
2018-04-01T10:17:02.020Z,1007.8
2018-04-01T10:18:11.151Z,1007.79
2018-04-01T10:19:19.985Z,1007.77
2018-04-01T10:20:28.820Z,1007.79
2018-04-01T10:21:37.927Z,1007.77
2018-04-01T10:22:46.760Z,1007.78
2018-04-01T10:23:55.644Z,1007.77
2018-04-01T10:25:04.478Z,1007.78
2018-04-01T10:26:13.310Z,1007.75
2018-04-01T10:27:22.143Z,1007.8
2018-04-01T10:28:30.975Z,1007.8
2018-04-01T10:29:40.008Z,1007.78
2018-04-01T10:30:48.841Z,1007.8
2018-04-01T10:31:57.677Z,1007.79
2018-04-01T10:33:06.510Z,1007.77
2018-04-01T10:34:15.343Z,1007.81
2018-04-01T10:35:24.175Z,1007.84
2018-04-01T10:36:33.009Z,1007.85
2018-04-01T10:37:41.843Z,1007.88
2018-04-01T10:38:50.675Z,1007.91
2018-04-01T10:39:59.508Z,1007.89
2018-04-01T10:41:08.499Z,1007.94
2018-04-01T10:42:17.327Z,1007.92
2018-04-01T10:43:26.193Z,1008.04
2018-04-01T10:44:34.993Z,1007.96
2018-04-01T10:45:43.829Z,1008
2018-04-01T10:46:52.914Z,1007.94
2018-04-01T10:48:01.747Z,1008
2018-04-01T10:49:10.579Z,1008
2018-04-01T10:50:19.413Z,1008.11
2018-04-01T10:51:28.249Z,1008.1
2018-04-01T10:52:37.182Z,1008.11
2018-04-01T10:53:46.017Z,1008.17
2018-04-01T10:54:54.873Z,1008.11
2018-04-01T10:56:03.683Z,1008.12
2018-04-01T10:57:12.517Z,1008.17
2018-04-01T10:58:21.451Z,1008.17
2018-04-01T10:59:30.286Z,1008.22
2018-04-01T11:00:39.119Z,1008.19
2018-04-01T11:01:47.955Z,1008.16
2018-04-01T11:02:56.795Z,1008.24
2018-04-01T11:04:05.628Z,1008.3
2018-04-01T11:05:14.472Z,1008.21
2018-04-01T11:06:23.290Z,1008.3
2018-04-01T11:07:32.125Z,1008.28
2018-04-01T11:08:40.958Z,1008.34
2018-04-01T11:09:50.042Z,1008.26
2018-04-01T11:10:59.158Z,1008.3
2018-04-01T11:12:07.994Z,1008.3
2018-04-01T11:13:17.107Z,1008.32
2018-04-01T11:14:25.936Z,1008.31
2018-04-01T11:15:34.873Z,1008.31
2018-04-01T11:16:43.708Z,1008.26
2018-04-01T11:17:52.542Z,1008.37
2018-04-01T11:19:01.662Z,1008.35
2018-04-01T11:20:10.494Z,1008.41
2018-04-01T11:21:19.327Z,1008.31
2018-04-01T11:22:28.162Z,1008.29
2018-04-01T11:23:36.996Z,1008.4
2018-04-01T11:24:46.107Z,1008.41
2018-04-01T11:25:55.216Z,1008.4
2018-04-01T11:27:04.301Z,1008.42
2018-04-01T11:28:13.133Z,1008.46
2018-04-01T11:29:21.965Z,1008.5
2018-04-01T11:30:31.072Z,1008.5
2018-04-01T11:31:39.908Z,1008.53
2018-04-01T11:32:49.586Z,1008.49
2018-04-01T11:33:58.418Z,1008.52
2018-04-01T11:35:07.253Z,1008.52
2018-04-01T11:36:16.087Z,1008.51
2018-04-01T11:37:24.918Z,1008.52
2018-04-01T11:38:34.032Z,1008.51
2018-04-01T11:39:42.869Z,1008.54
2018-04-01T11:40:51.706Z,1008.55
2018-04-01T11:42:00.543Z,1008.54
2018-04-01T11:43:09.648Z,1008.67
2018-04-01T11:44:18.757Z,1008.59
2018-04-01T11:45:27.589Z,1008.6
2018-04-01T11:46:36.421Z,1008.58
2018-04-01T11:47:45.253Z,1008.6
2018-04-01T11:48:54.086Z,1008.61
2018-04-01T11:50:03.222Z,1008.6
2018-04-01T11:51:12.057Z,1008.59
2018-04-01T11:52:20.889Z,1008.62
2018-04-01T11:53:29.725Z,1008.58
2018-04-01T11:54:38.560Z,1008.66
2018-04-01T11:55:47.444Z,1008.62
2018-04-01T11:56:56.559Z,1008.65
2018-04-01T11:58:05.666Z,1008.65
2018-04-01T11:59:14.500Z,1008.76
2018-04-01T12:00:23.334Z,1008.74
2018-04-01T12:01:32.543Z,1008.71
2018-04-01T12:02:41.929Z,1008.76
2018-04-01T12:03:50.764Z,1008.73
2018-04-01T12:04:59.598Z,1008.79
2018-04-01T12:06:08.432Z,1008.76
2018-04-01T12:07:17.267Z,1008.81
2018-04-01T12:08:26.102Z,1008.92
2018-04-01T12:09:34.937Z,1008.79
2018-04-01T12:10:43.774Z,1008.77
2018-04-01T12:11:52.882Z,1008.76
2018-04-01T12:13:01.814Z,1008.77
2018-04-01T12:14:10.653Z,1008.77
2018-04-01T12:15:19.482Z,1008.79
2018-04-01T12:16:28.314Z,1008.79
2018-04-01T12:17:37.425Z,1008.72
2018-04-01T12:18:46.834Z,1008.75
2018-04-01T12:19:55.669Z,1008.74
2018-04-01T12:21:04.505Z,1008.81
2018-04-01T12:22:13.340Z,1008.79
2018-04-01T12:23:22.172Z,1008.87
2018-04-01T12:24:31.107Z,1008.81
2018-04-01T12:25:39.940Z,1008.84
2018-04-01T12:26:48.811Z,1008.78
2018-04-01T12:27:57.603Z,1008.74
2018-04-01T12:29:06.720Z,1008.84
2018-04-01T12:30:15.695Z,1008.87
2018-04-01T12:31:24.527Z,1008.74
2018-04-01T12:32:33.361Z,1008.69
2018-04-01T12:33:42.193Z,1008.75
2018-04-01T12:34:51.027Z,1008.75
2018-04-01T12:36:00.261Z,1008.8
2018-04-01T12:37:09.436Z,1008.74
2018-04-01T12:38:18.269Z,1008.82
2018-04-01T12:39:27.103Z,1008.84
2018-04-01T12:40:35.939Z,1008.79
2018-04-01T12:41:45.348Z,1008.8
2018-04-01T12:42:54.184Z,1008.89
2018-04-01T12:44:03.018Z,1008.86
2018-04-01T12:45:11.850Z,1008.83
2018-04-01T12:46:20.684Z,1008.88
2018-04-01T12:47:29.618Z,1008.93
2018-04-01T12:48:38.453Z,1008.9
2018-04-01T12:49:47.287Z,1008.85
2018-04-01T12:50:56.120Z,1008.88
2018-04-01T12:52:04.955Z,1008.88
2018-04-01T12:53:13.945Z,1008.87
2018-04-01T12:54:22.775Z,1008.89
2018-04-01T12:55:31.609Z,1008.87
2018-04-01T12:56:40.442Z,1008.88
2018-04-01T12:57:49.278Z,1008.91
2018-04-01T12:58:58.312Z,1008.9
2018-04-01T13:00:07.147Z,1008.95
2018-04-01T13:01:15.999Z,1008.87
2018-04-01T13:02:24.814Z,1008.91
2018-04-01T13:03:33.648Z,1008.91
2018-04-01T13:04:42.732Z,1008.93
2018-04-01T13:05:51.566Z,1008.91
2018-04-01T13:07:00.455Z,1008.89
2018-04-01T13:08:09.855Z,1008.84
2018-04-01T13:09:18.689Z,1008.96
2018-04-01T13:10:27.525Z,1008.86
2018-04-01T13:11:36.360Z,1008.91
2018-04-01T13:12:45.197Z,1008.89
2018-04-01T13:13:54.032Z,1008.96
2018-04-01T13:15:02.872Z,1008.92
2018-04-01T13:16:11.801Z,1008.97
2018-04-01T13:17:20.638Z,1008.98
2018-04-01T13:18:29.475Z,1008.93
2018-04-01T13:19:38.312Z,1009.02
2018-04-01T13:20:47.150Z,1009
2018-04-01T13:21:56.238Z,1009
2018-04-01T13:23:05.360Z,1008.95
2018-04-01T13:24:14.472Z,1009.03
2018-04-01T13:25:23.308Z,1008.9
2018-04-01T13:26:32.143Z,1008.91
2018-04-01T13:27:40.984Z,1008.92
2018-04-01T13:28:50.095Z,1008.98
2018-04-01T13:29:58.926Z,1008.87
2018-04-01T13:31:07.760Z,1009.07
2018-04-01T13:32:16.594Z,1008.96
2018-04-01T13:33:25.482Z,1009.01
2018-04-01T13:34:34.317Z,1009.03
2018-04-01T13:35:43.152Z,1009.11
2018-04-01T13:36:51.991Z,1009.15
2018-04-01T13:38:00.827Z,1009.19
2018-04-01T13:39:09.813Z,1009.12
2018-04-01T13:40:18.652Z,1009.18
2018-04-01T13:41:27.488Z,1009.26
2018-04-01T13:42:36.324Z,1009.09
2018-04-01T13:43:45.160Z,1009.51
2018-04-01T13:44:54.151Z,1009.69
2018-04-01T13:46:02.990Z,1009.4
2018-04-01T13:47:11.831Z,1009.44
2018-04-01T13:48:20.669Z,1009.23
2018-04-01T13:49:29.508Z,1009.27
2018-04-01T13:50:38.449Z,1009.52
2018-04-01T13:51:47.288Z,1009.25
2018-04-01T13:52:56.126Z,1009.35
2018-04-01T13:54:04.966Z,1009.4
2018-04-01T13:55:13.806Z,1009.27
2018-04-01T13:56:22.692Z,1009.23